Keswick, IA

11:15 PM CDT on July 25, 2014 (GMT -0500)
Dietze Weather Station (KIAMILLE3) Elev 883 ft | 41.57 °N, 92.16 °W | Change Station

Current weather conditions updated 2 seconds ago

Overcast
Overcast
71.3 °F
Feels Like 71.3 °F
N
2.5
Wind Variable Wind from ESE
Gusts 4.0 mph

Tomorrow is forecast to be Warmer than today. Showers and thunderstorms late.

Today
High -- | Low -- °F
--% Chance of Precip.
Yesterday
High -- | Low -- °F
Precip. -- in
5:57 AM 8:33 PM
Waning Crescent, 1% visible
Pressure 29.82 in
Visibility 10.0 miles
Clouds Overcast 7000 ft
Dew Point 67 °F
Humidity 87%
Rainfall 1.39 in
Snow Depth Not available.
UV 0 out of 12
Pollen 4.20 out of 12
Air Quality Not available.
Flu Activity Not available.
METAR KOOA 260355Z AUTO 12007KT 10SM OVC070 22/21 A2982 RMK AO2 T02210205

More Conditions Fewer Conditions

Pressure 29.82 in
Visibility 10.0 miles
Clouds Overcast 7000 ft
Dew Point 67 °F
Humidity 87%
Rainfall 1.39 in
Snow Depth Not available.
UV 0 out of 12
Pollen 4.20 out of 12
Air Quality Not available.
Flu Activity Not available.
METAR KOOA 260355Z AUTO 12007KT 10SM OVC070 22/21 A2982 RMK AO2 T02210205

More Conditions Fewer Conditions

10-Day Weather Forecast

Almanac

Astronomy

Jul. 25, 2014 Rise Set
Actual Time 5:57 AM CDT 8:33 PM CDT
Civil Twilight 5:25 AM CDT 9:05 PM CDT
Nautical Twilight 4:45 AM CDT 9:44 PM CDT
Astronomical Twilight 4:00 AM CDT 10:29 PM CDT
Moon 4:57 AM CDT (7/25) 7:29 PM CDT (7/25)
Length of Visible Light 15h 40m
Length of Day
14h 36m
Tomorrow will be 1m 53s shorter.
Waning Crescent, 1% of the Moon is Illuminated
Jul 26
Waning Crescent
Jul 26
New
Aug 3
First Quarter
Aug 10
Full
Aug 17
Last Quarter

Today's Extremes

State Highs State Lows

Community

WunderPhotos

Upload Photos

1,737,504 photos uploaded!

Nearby

Snow Depth

Station Depth Elevation
No new snow has been reported.

Earthquake Activity

City Distance Mag. Time & Date
No recent earthquake activity has been reported nearby.
Minimum magnitude displayed is 2.5.

Coastal Water Temperatures

Place Temperature
No Stations Reporting

Nearby Weather Stations

Station Location Temp. Heat Index Dew Point Humidity Wind Precip. Elev Updated Type
Dietze Weather Station, Millersburg, IA 71.3 °F - 67 °F 87% ESE  at  2.5 mph 0.00 in / hr 883 ft 11:15 PM CDT Rapid Fire
Williamsburg, IA 70.9 °F 73 °F 63 °F 75% East  at  0.0 mph 0.00 in / hr 820 ft 11:15 PM CDT Rapid Fire
Oskaloosa, IA 72.0 °F 70 °F 68 °F 87% NW  at  0.0 mph 0.00 in / hr 846 ft 11:14 PM CDT Rapid Fire

Show More Stations Show Fewer Stations